sensor_id;sensor_type;location;lat;lon;timestamp;P1;durP1;ratioP1;P2;durP2;ratioP2
36817;SDS011;22761;51.542;16.450;2022-09-09T00:01:08;9.90;;;8.35;;
36817;SDS011;22761;51.542;16.450;2022-09-09T00:04:15;9.60;;;8.20;;
36817;SDS011;22761;51.542;16.450;2022-09-09T00:07:00;10.72;;;7.92;;
36817;SDS011;22761;51.542;16.450;2022-09-09T00:12:39;7.78;;;6.58;;
36817;SDS011;22761;51.542;16.450;2022-09-09T00:23:29;8.48;;;5.75;;
36817;SDS011;22761;51.542;16.450;2022-09-09T00:26:14;6.30;;;5.33;;
36817;SDS011;22761;51.542;16.450;2022-09-09T00:32:15;9.30;;;5.67;;
36817;SDS011;22761;51.542;16.450;2022-09-09T00:34:55;7.17;;;5.58;;
36817;SDS011;22761;51.542;16.450;2022-09-09T00:37:27;5.92;;;4.95;;
36817;SDS011;22761;51.542;16.450;2022-09-09T00:39:59;5.42;;;4.92;;
36817;SDS011;22761;51.542;16.450;2022-09-09T00:42:33;5.08;;;4.58;;
36817;SDS011;22761;51.542;16.450;2022-09-09T00:46:13;5.10;;;4.58;;
36817;SDS011;22761;51.542;16.450;2022-09-09T00:48:07;4.53;;;3.90;;
36817;SDS011;22761;51.542;16.450;2022-09-09T00:56:52;6.65;;;5.20;;
36817;SDS011;22761;51.542;16.450;2022-09-09T00:59:42;5.42;;;4.60;;
36817;SDS011;22761;51.542;16.450;2022-09-09T01:07:40;5.65;;;4.85;;
36817;SDS011;22761;51.542;16.450;2022-09-09T01:10:15;6.12;;;5.20;;
36817;SDS011;22761;51.542;16.450;2022-09-09T01:13:02;5.83;;;5.22;;
36817;SDS011;22761;51.542;16.450;2022-09-09T01:15:33;5.60;;;4.83;;
36817;SDS011;22761;51.542;16.450;2022-09-09T01:18:05;5.33;;;4.83;;
36817;SDS011;22761;51.542;16.450;2022-09-09T01:26:35;6.10;;;4.20;;
36817;SDS011;22761;51.542;16.450;2022-09-09T01:29:16;4.40;;;3.95;;
36817;SDS011;22761;51.542;16.450;2022-09-09T01:31:55;4.33;;;3.98;;
36817;SDS011;22761;51.542;16.450;2022-09-09T01:34:31;4.42;;;3.67;;
36817;SDS011;22761;51.542;16.450;2022-09-09T01:37:07;9.13;;;5.05;;
36817;SDS011;22761;51.542;16.450;2022-09-09T01:39:40;5.85;;;5.22;;
36817;SDS011;22761;51.542;16.450;2022-09-09T01:42:12;9.75;;;6.30;;
36817;SDS011;22761;51.542;16.450;2022-09-09T01:44:42;7.00;;;6.17;;
36817;SDS011;22761;51.542;16.450;2022-09-09T01:47:09;6.58;;;5.40;;
36817;SDS011;22761;51.542;16.450;2022-09-09T01:49:38;5.22;;;4.72;;
36817;SDS011;22761;51.542;16.450;2022-09-09T01:52:07;6.30;;;4.90;;
36817;SDS011;22761;51.542;16.450;2022-09-09T01:54:37;8.63;;;6.45;;
36817;SDS011;22761;51.542;16.450;2022-09-09T02:08:54;9.65;;;6.92;;
36817;SDS011;22761;51.542;16.450;2022-09-09T02:11:25;7.22;;;6.53;;
36817;SDS011;22761;51.542;16.450;2022-09-09T02:14:00;8.98;;;6.65;;
36817;SDS011;22761;51.542;16.450;2022-09-09T02:16:51;6.53;;;5.75;;
36817;SDS011;22761;51.542;16.450;2022-09-09T02:19:31;9.73;;;6.42;;
36817;SDS011;22761;51.542;16.450;2022-09-09T02:22:02;8.10;;;6.78;;
36817;SDS011;22761;51.542;16.450;2022-09-09T02:24:31;9.95;;;7.65;;
36817;SDS011;22761;51.542;16.450;2022-09-09T02:27:04;14.95;;;7.30;;
36817;SDS011;22761;51.542;16.450;2022-09-09T02:29:36;13.70;;;7.40;;
36817;SDS011;22761;51.542;16.450;2022-09-09T02:32:11;14.68;;;6.62;;
36817;SDS011;22761;51.542;16.450;2022-09-09T02:34:43;13.53;;;7.05;;
36817;SDS011;22761;51.542;16.450;2022-09-09T02:37:24;11.28;;;6.60;;
36817;SDS011;22761;51.542;16.450;2022-09-09T02:39:56;11.22;;;6.15;;
36817;SDS011;22761;51.542;16.450;2022-09-09T02:42:23;7.22;;;6.47;;
36817;SDS011;22761;51.542;16.450;2022-09-09T02:44:51;18.85;;;7.00;;
36817;SDS011;22761;51.542;16.450;2022-09-09T02:47:26;13.80;;;6.28;;
36817;SDS011;22761;51.542;16.450;2022-09-09T02:50:19;12.63;;;6.05;;
36817;SDS011;22761;51.542;16.450;2022-09-09T02:58:27;7.47;;;6.25;;
36817;SDS011;22761;51.542;16.450;2022-09-09T03:00:58;6.60;;;5.97;;
36817;SDS011;22761;51.542;16.450;2022-09-09T03:03:28;10.82;;;8.00;;
36817;SDS011;22761;51.542;16.450;2022-09-09T03:05:57;17.98;;;7.72;;
36817;SDS011;22761;51.542;16.450;2022-09-09T03:08:25;17.17;;;8.08;;
36817;SDS011;22761;51.542;16.450;2022-09-09T03:10:54;25.32;;;8.25;;
36817;SDS011;22761;51.542;16.450;2022-09-09T03:13:23;10.18;;;6.95;;
36817;SDS011;22761;51.542;16.450;2022-09-09T03:15:51;20.97;;;6.47;;
36817;SDS011;22761;51.542;16.450;2022-09-09T03:18:19;10.88;;;6.80;;
36817;SDS011;22761;51.542;16.450;2022-09-09T03:20:49;15.23;;;6.42;;
36817;SDS011;22761;51.542;16.450;2022-09-09T03:23:17;14.93;;;6.50;;
36817;SDS011;22761;51.542;16.450;2022-09-09T03:25:48;10.72;;;7.08;;
36817;SDS011;22761;51.542;16.450;2022-09-09T03:28:18;13.72;;;7.55;;
36817;SDS011;22761;51.542;16.450;2022-09-09T03:30:47;7.28;;;6.58;;
36817;SDS011;22761;51.542;16.450;2022-09-09T03:33:15;7.67;;;6.95;;
36817;SDS011;22761;51.542;16.450;2022-09-09T03:35:45;7.33;;;6.62;;
36817;SDS011;22761;51.542;16.450;2022-09-09T03:38:18;7.28;;;6.10;;
36817;SDS011;22761;51.542;16.450;2022-09-09T03:40:48;7.28;;;6.60;;
36817;SDS011;22761;51.542;16.450;2022-09-09T03:43:19;9.23;;;6.50;;
36817;SDS011;22761;51.542;16.450;2022-09-09T03:45:47;8.15;;;6.33;;
36817;SDS011;22761;51.542;16.450;2022-09-09T03:48:15;6.33;;;5.72;;
36817;SDS011;22761;51.542;16.450;2022-09-09T03:50:46;7.37;;;6.40;;
36817;SDS011;22761;51.542;16.450;2022-09-09T03:53:16;6.40;;;5.80;;
36817;SDS011;22761;51.542;16.450;2022-09-09T03:55:46;6.72;;;5.62;;
36817;SDS011;22761;51.542;16.450;2022-09-09T03:58:16;8.80;;;5.75;;
36817;SDS011;22761;51.542;16.450;2022-09-09T04:00:58;9.00;;;6.37;;
36817;SDS011;22761;51.542;16.450;2022-09-09T04:03:29;13.53;;;6.45;;
36817;SDS011;22761;51.542;16.450;2022-09-09T04:05:57;12.60;;;5.75;;
36817;SDS011;22761;51.542;16.450;2022-09-09T04:08:29;5.45;;;4.95;;
36817;SDS011;22761;51.542;16.450;2022-09-09T04:11:00;6.08;;;5.00;;
36817;SDS011;22761;51.542;16.450;2022-09-09T04:13:36;4.83;;;4.15;;
36817;SDS011;22761;51.542;16.450;2022-09-09T04:18:29;5.45;;;4.58;;
36817;SDS011;22761;51.542;16.450;2022-09-09T04:20:58;7.50;;;4.55;;
36817;SDS011;22761;51.542;16.450;2022-09-09T04:23:27;7.92;;;4.92;;
36817;SDS011;22761;51.542;16.450;2022-09-09T04:25:56;9.68;;;5.80;;
36817;SDS011;22761;51.542;16.450;2022-09-09T04:28:25;32.45;;;6.85;;
36817;SDS011;22761;51.542;16.450;2022-09-09T04:30:55;48.90;;;7.37;;
36817;SDS011;22761;51.542;16.450;2022-09-09T04:33:23;27.17;;;6.75;;
36817;SDS011;22761;51.542;16.450;2022-09-09T04:35:54;33.50;;;6.67;;
36817;SDS011;22761;51.542;16.450;2022-09-09T04:38:22;38.65;;;5.85;;
36817;SDS011;22761;51.542;16.450;2022-09-09T04:40:50;23.57;;;5.08;;
36817;SDS011;22761;51.542;16.450;2022-09-09T04:43:20;32.60;;;4.00;;
36817;SDS011;22761;51.542;16.450;2022-09-09T04:45:48;14.15;;;4.03;;
36817;SDS011;22761;51.542;16.450;2022-09-09T04:48:20;16.45;;;5.35;;
36817;SDS011;22761;51.542;16.450;2022-09-09T04:50:58;10.53;;;6.12;;
36817;SDS011;22761;51.542;16.450;2022-09-09T04:53:35;28.07;;;4.90;;
36817;SDS011;22761;51.542;16.450;2022-09-09T04:56:05;31.77;;;4.30;;
36817;SDS011;22761;51.542;16.450;2022-09-09T04:58:40;7.17;;;4.40;;
36817;SDS011;22761;51.542;16.450;2022-09-09T05:03:45;10.08;;;4.40;;
36817;SDS011;22761;51.542;16.450;2022-09-09T05:06:15;12.93;;;5.65;;
36817;SDS011;22761;51.542;16.450;2022-09-09T05:08:47;7.55;;;5.65;;
36817;SDS011;22761;51.542;16.450;2022-09-09T05:11:21;5.92;;;5.33;;
36817;SDS011;22761;51.542;16.450;2022-09-09T05:13:55;6.22;;;5.62;;
36817;SDS011;22761;51.542;16.450;2022-09-09T05:16:22;6.03;;;5.30;;
36817;SDS011;22761;51.542;16.450;2022-09-09T05:18:51;6.62;;;5.83;;
36817;SDS011;22761;51.542;16.450;2022-09-09T05:21:20;9.13;;;6.45;;
36817;SDS011;22761;51.542;16.450;2022-09-09T05:23:49;8.75;;;6.35;;
36817;SDS011;22761;51.542;16.450;2022-09-09T05:26:18;9.50;;;7.15;;
36817;SDS011;22761;51.542;16.450;2022-09-09T05:31:15;7.65;;;6.62;;
36817;SDS011;22761;51.542;16.450;2022-09-09T05:33:49;7.53;;;6.55;;
36817;SDS011;22761;51.542;16.450;2022-09-09T05:36:16;7.00;;;6.35;;
36817;SDS011;22761;51.542;16.450;2022-09-09T05:38:47;6.72;;;6.08;;
36817;SDS011;22761;51.542;16.450;2022-09-09T05:41:16;7.37;;;6.45;;
36817;SDS011;22761;51.542;16.450;2022-09-09T05:43:44;7.03;;;6.35;;
36817;SDS011;22761;51.542;16.450;2022-09-09T05:46:14;8.70;;;6.87;;
36817;SDS011;22761;51.542;16.450;2022-09-09T05:48:45;8.88;;;7.97;;
36817;SDS011;22761;51.542;16.450;2022-09-09T05:51:14;13.62;;;7.62;;
36817;SDS011;22761;51.542;16.450;2022-09-09T05:56:13;7.62;;;6.90;;
36817;SDS011;22761;51.542;16.450;2022-09-09T05:58:46;8.43;;;7.53;;
36817;SDS011;22761;51.542;16.450;2022-09-09T06:01:24;8.48;;;7.67;;
36817;SDS011;22761;51.542;16.450;2022-09-09T06:03:56;8.68;;;7.80;;
36817;SDS011;22761;51.542;16.450;2022-09-09T06:06:27;8.98;;;7.70;;
36817;SDS011;22761;51.542;16.450;2022-09-09T06:09:02;8.98;;;8.08;;
36817;SDS011;22761;51.542;16.450;2022-09-09T06:11:33;9.25;;;7.78;;
36817;SDS011;22761;51.542;16.450;2022-09-09T06:14:02;7.72;;;7.03;;
36817;SDS011;22761;51.542;16.450;2022-09-09T06:16:31;8.10;;;6.55;;
36817;SDS011;22761;51.542;16.450;2022-09-09T06:18:59;7.67;;;6.87;;
36817;SDS011;22761;51.542;16.450;2022-09-09T06:21:29;8.10;;;7.30;;
36817;SDS011;22761;51.542;16.450;2022-09-09T06:24:00;9.13;;;7.62;;
36817;SDS011;22761;51.542;16.450;2022-09-09T06:26:29;8.03;;;7.22;;
36817;SDS011;22761;51.542;16.450;2022-09-09T06:29:01;7.92;;;7.22;;
36817;SDS011;22761;51.542;16.450;2022-09-09T06:34:03;8.68;;;7.47;;
36817;SDS011;22761;51.542;16.450;2022-09-09T06:36:34;9.40;;;7.70;;
36817;SDS011;22761;51.542;16.450;2022-09-09T06:39:04;9.00;;;7.50;;
36817;SDS011;22761;51.542;16.450;2022-09-09T06:41:35;8.18;;;7.15;;
36817;SDS011;22761;51.542;16.450;2022-09-09T06:44:03;8.28;;;6.85;;
36817;SDS011;22761;51.542;16.450;2022-09-09T06:46:32;8.53;;;6.45;;
36817;SDS011;22761;51.542;16.450;2022-09-09T06:49:02;6.90;;;6.20;;
36817;SDS011;22761;51.542;16.450;2022-09-09T06:51:30;8.20;;;7.40;;
36817;SDS011;22761;51.542;16.450;2022-09-09T06:54:04;9.25;;;7.53;;
36817;SDS011;22761;51.542;16.450;2022-09-09T06:56:33;9.20;;;7.45;;
36817;SDS011;22761;51.542;16.450;2022-09-09T06:59:05;7.53;;;6.67;;
36817;SDS011;22761;51.542;16.450;2022-09-09T07:01:36;6.83;;;6.22;;
36817;SDS011;22761;51.542;16.450;2022-09-09T07:04:09;7.65;;;6.60;;
36817;SDS011;22761;51.542;16.450;2022-09-09T07:06:39;9.83;;;7.87;;
36817;SDS011;22761;51.542;16.450;2022-09-09T07:09:11;6.17;;;5.58;;
36817;SDS011;22761;51.542;16.450;2022-09-09T07:11:47;6.25;;;4.70;;
36817;SDS011;22761;51.542;16.450;2022-09-09T07:14:15;5.15;;;4.75;;
36817;SDS011;22761;51.542;16.450;2022-09-09T07:16:47;5.65;;;4.75;;
36817;SDS011;22761;51.542;16.450;2022-09-09T07:19:16;7.60;;;3.90;;
36817;SDS011;22761;51.542;16.450;2022-09-09T07:21:44;4.78;;;4.37;;
36817;SDS011;22761;51.542;16.450;2022-09-09T07:24:12;4.78;;;3.98;;
36817;SDS011;22761;51.542;16.450;2022-09-09T07:26:41;5.42;;;3.85;;
36817;SDS011;22761;51.542;16.450;2022-09-09T07:29:08;3.70;;;3.30;;
36817;SDS011;22761;51.542;16.450;2022-09-09T07:31:38;4.80;;;3.30;;
36817;SDS011;22761;51.542;16.450;2022-09-09T07:34:08;6.05;;;2.77;;
36817;SDS011;22761;51.542;16.450;2022-09-09T07:36:36;5.25;;;2.83;;
36817;SDS011;22761;51.542;16.450;2022-09-09T07:39:08;5.95;;;2.52;;
36817;SDS011;22761;51.542;16.450;2022-09-09T07:41:46;3.80;;;2.25;;
36817;SDS011;22761;51.542;16.450;2022-09-09T07:44:18;2.65;;;2.35;;
36817;SDS011;22761;51.542;16.450;2022-09-09T07:46:50;3.67;;;2.52;;
36817;SDS011;22761;51.542;16.450;2022-09-09T07:49:20;5.72;;;2.90;;
36817;SDS011;22761;51.542;16.450;2022-09-09T07:51:47;2.58;;;2.37;;
36817;SDS011;22761;51.542;16.450;2022-09-09T07:54:17;4.33;;;2.58;;
36817;SDS011;22761;51.542;16.450;2022-09-09T07:56:54;3.27;;;2.42;;
36817;SDS011;22761;51.542;16.450;2022-09-09T07:59:29;3.65;;;2.20;;
36817;SDS011;22761;51.542;16.450;2022-09-09T08:02:01;4.00;;;2.30;;
36817;SDS011;22761;51.542;16.450;2022-09-09T08:04:37;3.67;;;2.60;;
36817;SDS011;22761;51.542;16.450;2022-09-09T08:10:49;5.55;;;2.80;;
36817;SDS011;22761;51.542;16.450;2022-09-09T08:13:16;4.55;;;2.40;;
36817;SDS011;22761;51.542;16.450;2022-09-09T08:15:45;4.10;;;2.40;;
36817;SDS011;22761;51.542;16.450;2022-09-09T08:18:14;6.40;;;2.70;;
36817;SDS011;22761;51.542;16.450;2022-09-09T08:20:52;3.20;;;2.25;;
36817;SDS011;22761;51.542;16.450;2022-09-09T08:23:58;4.85;;;1.90;;
36817;SDS011;22761;51.542;16.450;2022-09-09T08:27:19;2.67;;;2.10;;
36817;SDS011;22761;51.542;16.450;2022-09-09T08:30:17;3.00;;;2.20;;
36817;SDS011;22761;51.542;16.450;2022-09-09T08:32:53;3.80;;;2.25;;
36817;SDS011;22761;51.542;16.450;2022-09-09T08:35:23;3.92;;;1.98;;
36817;SDS011;22761;51.542;16.450;2022-09-09T08:37:53;5.95;;;2.00;;
36817;SDS011;22761;51.542;16.450;2022-09-09T08:42:52;2.58;;;1.57;;
36817;SDS011;22761;51.542;16.450;2022-09-09T08:45:35;3.05;;;1.70;;
36817;SDS011;22761;51.542;16.450;2022-09-09T08:48:35;2.98;;;1.92;;
36817;SDS011;22761;51.542;16.450;2022-09-09T08:51:11;3.60;;;1.50;;
36817;SDS011;22761;51.542;16.450;2022-09-09T08:53:44;1.85;;;1.45;;
36817;SDS011;22761;51.542;16.450;2022-09-09T08:56:21;2.92;;;1.42;;
36817;SDS011;22761;51.542;16.450;2022-09-09T08:58:54;6.10;;;1.72;;
36817;SDS011;22761;51.542;16.450;2022-09-09T09:01:39;4.92;;;1.62;;
36817;SDS011;22761;51.542;16.450;2022-09-09T09:07:18;3.30;;;1.60;;
36817;SDS011;22761;51.542;16.450;2022-09-09T09:09:53;2.42;;;1.30;;
36817;SDS011;22761;51.542;16.450;2022-09-09T09:12:30;2.12;;;1.52;;
36817;SDS011;22761;51.542;16.450;2022-09-09T09:15:01;2.52;;;1.30;;
36817;SDS011;22761;51.542;16.450;2022-09-09T09:17:35;4.12;;;1.40;;
36817;SDS011;22761;51.542;16.450;2022-09-09T09:19:59;3.22;;;1.27;;
36817;SDS011;22761;51.542;16.450;2022-09-09T09:25:20;3.70;;;1.42;;
36817;SDS011;22761;51.542;16.450;2022-09-09T09:27:53;3.55;;;1.60;;
36817;SDS011;22761;51.542;16.450;2022-09-09T09:30:34;3.15;;;1.20;;
36817;SDS011;22761;51.542;16.450;2022-09-09T09:35:53;4.42;;;1.50;;
36817;SDS011;22761;51.542;16.450;2022-09-09T09:38:22;4.97;;;1.30;;
36817;SDS011;22761;51.542;16.450;2022-09-09T09:40:54;1.87;;;1.00;;
36817;SDS011;22761;51.542;16.450;2022-09-09T09:43:26;3.67;;;1.20;;
36817;SDS011;22761;51.542;16.450;2022-09-09T09:46:04;2.58;;;1.10;;
36817;SDS011;22761;51.542;16.450;2022-09-09T09:48:34;3.40;;;1.20;;
36817;SDS011;22761;51.542;16.450;2022-09-09T09:51:08;2.77;;;1.10;;
36817;SDS011;22761;51.542;16.450;2022-09-09T09:53:37;3.10;;;1.40;;
36817;SDS011;22761;51.542;16.450;2022-09-09T09:56:08;3.65;;;1.12;;
36817;SDS011;22761;51.542;16.450;2022-09-09T10:06:32;1.98;;;1.10;;
36817;SDS011;22761;51.542;16.450;2022-09-09T10:09:20;3.65;;;1.20;;
36817;SDS011;22761;51.542;16.450;2022-09-09T10:11:58;2.83;;;1.30;;
36817;SDS011;22761;51.542;16.450;2022-09-09T10:14:37;3.27;;;1.07;;
36817;SDS011;22761;51.542;16.450;2022-09-09T10:17:29;3.37;;;0.80;;
36817;SDS011;22761;51.542;16.450;2022-09-09T10:26:29;2.98;;;0.80;;
36817;SDS011;22761;51.542;16.450;2022-09-09T10:41:16;3.47;;;1.30;;
36817;SDS011;22761;51.542;16.450;2022-09-09T10:55:23;3.55;;;0.80;;
36817;SDS011;22761;51.542;16.450;2022-09-09T10:57:55;1.85;;;0.80;;
36817;SDS011;22761;51.542;16.450;2022-09-09T11:00:25;2.85;;;1.00;;
36817;SDS011;22761;51.542;16.450;2022-09-09T11:03:21;1.82;;;0.68;;
36817;SDS011;22761;51.542;16.450;2022-09-09T11:06:04;2.98;;;0.80;;
36817;SDS011;22761;51.542;16.450;2022-09-09T11:08:36;2.90;;;0.80;;
36817;SDS011;22761;51.542;16.450;2022-09-09T11:16:35;2.45;;;0.60;;
36817;SDS011;22761;51.542;16.450;2022-09-09T11:19:33;4.47;;;0.93;;
36817;SDS011;22761;51.542;16.450;2022-09-09T11:22:03;3.25;;;0.60;;
36817;SDS011;22761;51.542;16.450;2022-09-09T11:25:05;1.92;;;0.70;;
36817;SDS011;22761;51.542;16.450;2022-09-09T11:28:02;4.00;;;0.90;;
36817;SDS011;22761;51.542;16.450;2022-09-09T11:37:08;3.72;;;0.93;;
36817;SDS011;22761;51.542;16.450;2022-09-09T11:43:05;1.72;;;0.50;;
36817;SDS011;22761;51.542;16.450;2022-09-09T11:45:39;2.95;;;0.80;;
36817;SDS011;22761;51.542;16.450;2022-09-09T11:48:22;1.67;;;0.70;;
36817;SDS011;22761;51.542;16.450;2022-09-09T11:51:00;1.80;;;0.68;;
36817;SDS011;22761;51.542;16.450;2022-09-09T11:53:31;3.12;;;0.90;;
36817;SDS011;22761;51.542;16.450;2022-09-09T11:56:04;1.55;;;0.57;;
36817;SDS011;22761;51.542;16.450;2022-09-09T11:58:42;1.02;;;0.50;;
36817;SDS011;22761;51.542;16.450;2022-09-09T12:04:06;1.35;;;0.50;;
36817;SDS011;22761;51.542;16.450;2022-09-09T12:06:45;3.05;;;0.70;;
36817;SDS011;22761;51.542;16.450;2022-09-09T12:09:41;1.92;;;0.65;;
36817;SDS011;22761;51.542;16.450;2022-09-09T12:12:30;3.35;;;0.65;;
36817;SDS011;22761;51.542;16.450;2022-09-09T12:17:42;1.02;;;0.50;;
36817;SDS011;22761;51.542;16.450;2022-09-09T12:20:20;5.58;;;0.70;;
36817;SDS011;22761;51.542;16.450;2022-09-09T12:33:46;1.47;;;0.45;;
36817;SDS011;22761;51.542;16.450;2022-09-09T12:36:16;2.33;;;0.75;;
36817;SDS011;22761;51.542;16.450;2022-09-09T12:38:48;2.58;;;0.57;;
36817;SDS011;22761;51.542;16.450;2022-09-09T12:41:21;2.47;;;0.50;;
36817;SDS011;22761;51.542;16.450;2022-09-09T12:44:02;2.67;;;0.50;;
36817;SDS011;22761;51.542;16.450;2022-09-09T12:49:20;1.65;;;0.42;;
36817;SDS011;22761;51.542;16.450;2022-09-09T12:52:23;2.30;;;0.40;;
36817;SDS011;22761;51.542;16.450;2022-09-09T12:55:01;2.15;;;0.62;;
36817;SDS011;22761;51.542;16.450;2022-09-09T12:57:36;2.12;;;0.55;;
36817;SDS011;22761;51.542;16.450;2022-09-09T13:00:12;1.55;;;0.60;;
36817;SDS011;22761;51.542;16.450;2022-09-09T13:03:01;2.17;;;0.60;;
36817;SDS011;22761;51.542;16.450;2022-09-09T13:05:37;2.12;;;0.50;;
36817;SDS011;22761;51.542;16.450;2022-09-09T13:08:08;1.80;;;0.60;;
36817;SDS011;22761;51.542;16.450;2022-09-09T13:10:43;2.75;;;0.53;;
36817;SDS011;22761;51.542;16.450;2022-09-09T13:13:23;1.98;;;0.50;;
36817;SDS011;22761;51.542;16.450;2022-09-09T13:16:06;2.62;;;0.60;;
36817;SDS011;22761;51.542;16.450;2022-09-09T13:18:46;1.92;;;0.60;;
36817;SDS011;22761;51.542;16.450;2022-09-09T13:21:14;1.67;;;0.60;;
36817;SDS011;22761;51.542;16.450;2022-09-09T13:23:48;2.20;;;0.82;;
36817;SDS011;22761;51.542;16.450;2022-09-09T13:26:21;5.20;;;0.95;;
36817;SDS011;22761;51.542;16.450;2022-09-09T13:28:53;3.35;;;0.80;;
36817;SDS011;22761;51.542;16.450;2022-09-09T13:31:33;1.75;;;0.82;;
36817;SDS011;22761;51.542;16.450;2022-09-09T13:33:58;2.87;;;0.70;;
36817;SDS011;22761;51.542;16.450;2022-09-09T13:38:59;2.12;;;0.60;;
36817;SDS011;22761;51.542;16.450;2022-09-09T13:41:42;1.60;;;0.55;;
36817;SDS011;22761;51.542;16.450;2022-09-09T13:44:25;3.52;;;0.70;;
36817;SDS011;22761;51.542;16.450;2022-09-09T13:47:04;2.85;;;0.72;;
36817;SDS011;22761;51.542;16.450;2022-09-09T13:49:42;2.60;;;0.70;;
36817;SDS011;22761;51.542;16.450;2022-09-09T13:52:15;4.05;;;0.80;;
36817;SDS011;22761;51.542;16.450;2022-09-09T13:55:06;2.50;;;0.80;;
36817;SDS011;22761;51.542;16.450;2022-09-09T13:57:37;2.25;;;0.70;;
36817;SDS011;22761;51.542;16.450;2022-09-09T14:00:09;3.42;;;0.60;;
36817;SDS011;22761;51.542;16.450;2022-09-09T14:02:41;1.45;;;0.60;;
36817;SDS011;22761;51.542;16.450;2022-09-09T14:05:10;2.70;;;0.75;;
36817;SDS011;22761;51.542;16.450;2022-09-09T14:07:40;3.33;;;0.60;;
36817;SDS011;22761;51.542;16.450;2022-09-09T14:10:09;1.32;;;0.68;;
36817;SDS011;22761;51.542;16.450;2022-09-09T14:12:42;2.12;;;0.70;;
36817;SDS011;22761;51.542;16.450;2022-09-09T14:15:11;2.12;;;0.60;;
36817;SDS011;22761;51.542;16.450;2022-09-09T14:17:39;1.75;;;0.47;;
36817;SDS011;22761;51.542;16.450;2022-09-09T14:20:06;1.62;;;0.70;;
36817;SDS011;22761;51.542;16.450;2022-09-09T14:22:39;4.20;;;0.72;;
36817;SDS011;22761;51.542;16.450;2022-09-09T14:25:10;2.47;;;0.70;;
36817;SDS011;22761;51.542;16.450;2022-09-09T14:27:40;2.52;;;0.50;;
36817;SDS011;22761;51.542;16.450;2022-09-09T14:30:08;2.77;;;0.60;;
36817;SDS011;22761;51.542;16.450;2022-09-09T14:32:38;1.87;;;0.47;;
36817;SDS011;22761;51.542;16.450;2022-09-09T14:35:10;1.27;;;0.45;;
36817;SDS011;22761;51.542;16.450;2022-09-09T14:37:39;1.22;;;0.50;;
36817;SDS011;22761;51.542;16.450;2022-09-09T14:40:07;3.02;;;0.70;;
36817;SDS011;22761;51.542;16.450;2022-09-09T14:42:42;1.55;;;0.68;;
36817;SDS011;22761;51.542;16.450;2022-09-09T14:45:18;2.50;;;0.50;;
36817;SDS011;22761;51.542;16.450;2022-09-09T14:47:47;2.10;;;0.70;;
36817;SDS011;22761;51.542;16.450;2022-09-09T14:50:17;3.08;;;0.60;;
36817;SDS011;22761;51.542;16.450;2022-09-09T14:52:46;4.20;;;0.40;;
36817;SDS011;22761;51.542;16.450;2022-09-09T14:55:14;1.60;;;0.47;;
36817;SDS011;22761;51.542;16.450;2022-09-09T14:57:42;1.32;;;0.40;;
36817;SDS011;22761;51.542;16.450;2022-09-09T15:00:11;1.07;;;0.40;;
36817;SDS011;22761;51.542;16.450;2022-09-09T15:02:39;2.27;;;0.33;;
36817;SDS011;22761;51.542;16.450;2022-09-09T15:05:06;1.87;;;0.60;;
36817;SDS011;22761;51.542;16.450;2022-09-09T15:07:34;1.17;;;0.40;;
36817;SDS011;22761;51.542;16.450;2022-09-09T15:10:02;1.55;;;0.57;;
36817;SDS011;22761;51.542;16.450;2022-09-09T15:12:30;0.77;;;0.40;;
36817;SDS011;22761;51.542;16.450;2022-09-09T15:14:59;2.77;;;0.60;;
36817;SDS011;22761;51.542;16.450;2022-09-09T15:17:27;1.02;;;0.57;;
36817;SDS011;22761;51.542;16.450;2022-09-09T15:19:55;1.65;;;0.53;;
36817;SDS011;22761;51.542;16.450;2022-09-09T15:22:23;2.60;;;0.50;;
36817;SDS011;22761;51.542;16.450;2022-09-09T15:24:50;2.67;;;0.50;;
36817;SDS011;22761;51.542;16.450;2022-09-09T15:27:18;1.50;;;0.70;;
36817;SDS011;22761;51.542;16.450;2022-09-09T15:29:46;1.22;;;0.68;;
36817;SDS011;22761;51.542;16.450;2022-09-09T15:32:13;2.55;;;0.42;;
36817;SDS011;22761;51.542;16.450;2022-09-09T15:34:40;3.72;;;0.60;;
36817;SDS011;22761;51.542;16.450;2022-09-09T15:37:09;1.55;;;0.40;;
36817;SDS011;22761;51.542;16.450;2022-09-09T15:39:40;2.35;;;0.57;;
36817;SDS011;22761;51.542;16.450;2022-09-09T15:42:07;1.95;;;0.70;;
36817;SDS011;22761;51.542;16.450;2022-09-09T15:44:38;0.95;;;0.50;;
36817;SDS011;22761;51.542;16.450;2022-09-09T15:47:10;2.55;;;0.62;;
36817;SDS011;22761;51.542;16.450;2022-09-09T15:49:42;2.85;;;0.70;;
36817;SDS011;22761;51.542;16.450;2022-09-09T15:52:09;2.92;;;0.78;;
36817;SDS011;22761;51.542;16.450;2022-09-09T15:54:37;2.20;;;0.70;;
36817;SDS011;22761;51.542;16.450;2022-09-09T15:57:05;2.50;;;0.70;;
36817;SDS011;22761;51.542;16.450;2022-09-09T15:59:35;2.45;;;0.80;;
36817;SDS011;22761;51.542;16.450;2022-09-09T16:02:02;2.55;;;0.95;;
36817;SDS011;22761;51.542;16.450;2022-09-09T16:04:31;5.28;;;0.80;;
36817;SDS011;22761;51.542;16.450;2022-09-09T16:07:01;5.70;;;1.03;;
36817;SDS011;22761;51.542;16.450;2022-09-09T16:09:31;2.30;;;0.93;;
36817;SDS011;22761;51.542;16.450;2022-09-09T16:12:00;3.05;;;0.62;;
36817;SDS011;22761;51.542;16.450;2022-09-09T16:14:31;2.62;;;0.80;;
36817;SDS011;22761;51.542;16.450;2022-09-09T16:17:00;1.45;;;0.70;;
36817;SDS011;22761;51.542;16.450;2022-09-09T16:19:30;2.52;;;0.80;;
36817;SDS011;22761;51.542;16.450;2022-09-09T16:21:57;3.33;;;0.90;;
36817;SDS011;22761;51.542;16.450;2022-09-09T16:24:25;2.55;;;0.78;;
36817;SDS011;22761;51.542;16.450;2022-09-09T16:26:53;3.20;;;0.95;;
36817;SDS011;22761;51.542;16.450;2022-09-09T16:29:21;3.87;;;1.10;;
36817;SDS011;22761;51.542;16.450;2022-09-09T16:31:50;2.03;;;0.80;;
36817;SDS011;22761;51.542;16.450;2022-09-09T16:34:18;1.62;;;0.60;;
36817;SDS011;22761;51.542;16.450;2022-09-09T16:36:46;2.45;;;0.90;;
36817;SDS011;22761;51.542;16.450;2022-09-09T16:39:16;4.03;;;0.80;;
36817;SDS011;22761;51.542;16.450;2022-09-09T16:41:46;2.15;;;0.60;;
36817;SDS011;22761;51.542;16.450;2022-09-09T16:44:15;1.80;;;0.80;;
36817;SDS011;22761;51.542;16.450;2022-09-09T16:46:45;4.05;;;0.80;;
36817;SDS011;22761;51.542;16.450;2022-09-09T16:49:19;3.05;;;0.57;;
36817;SDS011;22761;51.542;16.450;2022-09-09T16:51:48;3.20;;;0.85;;
36817;SDS011;22761;51.542;16.450;2022-09-09T16:54:19;3.37;;;0.93;;
36817;SDS011;22761;51.542;16.450;2022-09-09T16:56:48;3.08;;;0.80;;
36817;SDS011;22761;51.542;16.450;2022-09-09T16:59:17;2.77;;;0.82;;
36817;SDS011;22761;51.542;16.450;2022-09-09T17:01:47;2.27;;;1.00;;
36817;SDS011;22761;51.542;16.450;2022-09-09T17:04:18;2.67;;;0.93;;
36817;SDS011;22761;51.542;16.450;2022-09-09T17:06:51;4.12;;;0.90;;
36817;SDS011;22761;51.542;16.450;2022-09-09T17:09:20;2.52;;;0.82;;
36817;SDS011;22761;51.542;16.450;2022-09-09T17:11:49;2.15;;;0.82;;
36817;SDS011;22761;51.542;16.450;2022-09-09T17:14:18;4.67;;;1.05;;
36817;SDS011;22761;51.542;16.450;2022-09-09T17:16:47;7.40;;;1.82;;
36817;SDS011;22761;51.542;16.450;2022-09-09T17:19:15;3.80;;;2.27;;
36817;SDS011;22761;51.542;16.450;2022-09-09T17:21:43;6.03;;;2.22;;
36817;SDS011;22761;51.542;16.450;2022-09-09T17:24:12;5.77;;;2.97;;
36817;SDS011;22761;51.542;16.450;2022-09-09T17:26:40;5.37;;;2.42;;
